Time;durP1;ratioP1;P1;durP2;ratioP2;P2;SDS_P1;SDS_P2;PMS_P1;PMS_P2;Temp;Humidity;BMP_temperature;BMP_pressure;BME280_temperature;BME280_humidity;BME280_pressure;Samples;Min_cycle;Max_cycle;Signal;HPM_P1;HPM_P2
2023/04/08 00:01:52;;;;;;;7.95;7.25;;;;;;;7.58;100.00;98959.63;4205261;28;20267;-48
2023/04/08 00:03:54;;;;;;;7.88;7.25;;;;;;;7.61;100.00;98963.78;4174977;28;20241;-49
2023/04/08 00:05:56;;;;;;;8.65;7.82;;;;;;;7.62;100.00;98962.72;4176852;28;20204;-47
2023/04/08 00:07:58;;;;;;;8.38;7.68;;;;;;;7.59;100.00;98960.44;4181136;28;20892;-47
2023/04/08 00:10:00;;;;;;;8.90;8.10;;;;;;;7.59;100.00;98965.88;4175047;28;20826;-48
2023/04/08 00:12:01;;;;;;;8.77;8.07;;;;;;;7.59;100.00;98961.28;4156542;28;20208;-47
2023/04/08 00:14:03;;;;;;;8.57;7.78;;;;;;;7.62;100.00;98962.72;4171890;28;20692;-47
2023/04/08 00:16:05;;;;;;;9.23;8.43;;;;;;;7.59;100.00;98968.59;4171794;28;20597;-47
2023/04/08 00:18:07;;;;;;;8.43;7.72;;;;;;;7.59;100.00;98965.88;4182098;28;20720;-47
2023/04/08 00:20:09;;;;;;;8.98;8.18;;;;;;;7.64;100.00;98966.06;4188149;28;20219;-47
2023/04/08 00:22:11;;;;;;;9.40;8.50;;;;;;;7.60;100.00;98962.09;4173744;28;20721;-46
2023/04/08 00:24:12;;;;;;;9.93;8.88;;;;;;;7.56;100.00;98972.59;4205994;28;20576;-47
2023/04/08 00:26:14;;;;;;;8.63;7.72;;;;;;;7.57;100.00;98968.00;4181731;28;20673;-47
2023/04/08 00:28:16;;;;;;;9.00;8.02;;;;;;;7.55;100.00;98964.66;4172894;28;20755;-46
2023/04/08 00:30:18;;;;;;;8.30;7.60;;;;;;;7.54;100.00;98968.41;4165705;28;20236;-48
2023/04/08 00:32:20;;;;;;;11.18;6.65;;;;;;;7.59;100.00;98968.59;4164127;28;20232;-46
2023/04/08 00:34:22;;;;;;;8.52;7.70;;;;;;;7.56;100.00;98955.44;4189476;28;20640;-47
2023/04/08 00:36:26;;;;;;;8.23;7.43;;;;;;;7.53;100.00;98961.31;4165337;28;20322;-47
2023/04/08 00:38:28;;;;;;;8.00;7.30;;;;;;;7.54;100.00;98957.53;4154273;28;20264;-46
2023/04/08 00:40:29;;;;;;;7.97;7.28;;;;;;;7.55;100.00;98961.94;4175161;28;20208;-48
2023/04/08 00:42:31;;;;;;;6.78;6.10;;;;;;;7.56;100.00;98963.59;4191142;28;20286;-47
2023/04/08 00:44:33;;;;;;;8.80;7.85;;;;;;;7.54;100.00;98973.88;4174132;28;20208;-47
2023/04/08 00:46:39;;;;;;;8.80;7.95;;;;;;;7.55;100.00;98962.75;4161922;28;20833;-47
2023/04/08 00:48:41;;;;;;;7.18;6.57;;;;;;;7.57;100.00;98959.81;4180632;28;20192;-47
2023/04/08 00:50:43;;;;;;;9.07;8.27;;;;;;;7.54;100.00;98963.81;4181596;28;20208;-47
2023/04/08 00:52:45;;;;;;;9.25;8.38;;;;;;;7.54;100.00;98962.97;4155140;28;20232;-47
2023/04/08 00:54:46;;;;;;;8.57;7.78;;;;;;;7.57;100.00;98959.81;4173768;28;20199;-46
2023/04/08 00:56:48;;;;;;;8.68;7.95;;;;;;;7.57;100.00;98968.00;4157558;28;20224;-46
2023/04/08 00:58:53;;;;;;;8.68;7.88;;;;;;;7.55;100.00;98965.47;4180073;28;20298;-47
2023/04/08 01:01:11;;;;;;;8.60;7.90;;;;;;;7.54;100.00;98965.69;4187428;28;20218;-47
2023/04/08 01:03:14;;;;;;;7.93;7.22;;;;;;;7.54;100.00;98962.97;4172194;28;20212;-47
2023/04/08 01:05:58;;;;;;;7.90;7.28;;;;;;;7.53;100.00;98969.47;4173896;28;20259;-46
2023/04/08 01:08:02;;;;;;;10.48;7.03;;;;;;;7.53;100.00;98970.31;4170575;28;20261;-48
2023/04/08 01:10:09;;;;;;;8.10;7.40;;;;;;;7.56;100.00;98971.78;4204526;28;20259;-47
2023/04/08 01:12:11;;;;;;;8.98;8.10;;;;;;;7.59;100.00;98965.88;4203316;28;20296;-47
2023/04/08 01:14:16;;;;;;;9.73;8.90;;;;;;;7.52;100.00;98967.81;4188279;28;20208;-47
2023/04/08 01:16:18;;;;;;;8.85;8.05;;;;;;;7.46;100.00;98963.25;4173102;28;20259;-46
2023/04/08 01:18:20;;;;;;;10.55;9.40;;;;;;;7.38;100.00;98960.78;4173276;28;20230;-47
2023/04/08 01:20:24;;;;;;;10.85;8.48;;;;;;;7.49;100.00;98960.09;4169259;28;20259;-47
2023/04/08 01:22:42;;;;;;;9.30;8.48;;;;;;;7.45;100.00;98958.84;4172960;28;20200;-47
2023/04/08 01:24:44;;;;;;;10.82;9.82;;;;;;;7.46;100.00;98960.53;4171635;28;20690;-46
2023/04/08 01:26:46;;;;;;;9.82;8.93;;;;;;;7.46;100.00;98958.66;4172490;28;20347;-47
2023/04/08 01:28:50;;;;;;;10.70;9.80;;;;;;;7.48;100.00;98964.69;4187489;28;20278;-46
2023/04/08 01:30:52;;;;;;;9.82;9.02;;;;;;;7.49;100.00;98960.09;4167918;28;20215;-46
2023/04/08 01:32:55;;;;;;;9.80;8.90;;;;;;;7.47;100.00;98962.19;4173346;28;20217;-48
2023/04/08 01:34:58;;;;;;;9.52;8.73;;;;;;;7.52;100.00;98959.66;4167729;28;20205;-47
2023/04/08 01:37:01;;;;;;;10.13;9.25;;;;;;;7.48;100.00;98963.88;4169455;28;20229;-47
2023/04/08 01:39:04;;;;;;;8.23;7.53;;;;;;;7.50;100.00;98967.22;4170191;28;20270;-46
2023/04/08 01:41:08;;;;;;;9.18;8.32;;;;;;;7.51;100.00;98966.16;4169120;28;20363;-46
2023/04/08 01:43:13;;;;;;;8.85;8.05;;;;;;;7.50;100.00;98961.75;4178426;28;20223;-45
2023/04/08 01:45:15;;;;;;;10.38;9.55;;;;;;;7.50;100.00;98964.47;4167570;28;20295;-46
2023/04/08 01:47:18;;;;;;;8.80;8.10;;;;;;;7.50;100.00;98961.75;4168565;28;21252;-46
2023/04/08 01:49:20;;;;;;;9.23;7.30;;;;;;;7.53;100.00;98958.59;4187377;28;20239;-45
2023/04/08 01:51:22;;;;;;;8.77;8.07;;;;;;;7.50;100.00;98964.47;4155138;28;20243;-46
2023/04/08 01:53:24;;;;;;;9.25;8.45;;;;;;;7.48;100.00;98958.44;4177141;28;20331;-46
2023/04/08 01:55:27;;;;;;;8.15;7.45;;;;;;;7.54;100.00;98957.53;4178233;28;20204;-45
2023/04/08 01:57:32;;;;;;;9.10;8.30;;;;;;;7.51;100.00;98957.97;4178730;28;20259;-47
2023/04/08 01:59:35;;;;;;;9.32;7.65;;;;;;;7.49;100.00;98960.91;4168110;28;20326;-48
2023/04/08 02:01:37;;;;;;;7.60;7.00;;;;;;;7.53;100.00;98955.88;4156834;28;20292;-47
2023/04/08 02:03:42;;;;;;;8.80;8.10;;;;;;;7.47;100.00;98959.47;4185852;28;20282;-47
2023/04/08 02:05:44;;;;;;;8.90;8.10;;;;;;;7.47;100.00;98956.75;4172047;28;21041;-48
2023/04/08 02:07:49;;;;;;;9.32;7.57;;;;;;;7.49;100.00;98960.09;4170461;28;20255;-47
2023/04/08 02:09:51;;;;;;;9.85;8.13;;;;;;;7.53;100.00;98958.59;4170806;28;20686;-47
2023/04/08 02:11:52;;;;;;;7.63;7.00;;;;;;;7.49;100.00;98962.81;4159948;28;20655;-47
2023/04/08 02:13:54;;;;;;;8.55;7.85;;;;;;;7.45;100.00;98958.84;4177384;28;20690;-48
2023/04/08 02:16:37;;;;;;;8.32;7.60;;;;;;;7.45;100.00;98965.16;4175129;28;20674;-47
2023/04/08 02:18:43;;;;;;;11.43;8.45;;;;;;;7.45;100.00;98959.69;4168258;28;20216;-48
2023/04/08 02:20:56;;;;;;;8.88;8.18;;;;;;;7.46;100.00;98965.97;4176079;28;20208;-48
2023/04/08 02:23:12;;;;;;;8.93;8.23;;;;;;;7.46;100.00;98965.97;4167344;28;20212;-48
2023/04/08 02:25:15;;;;;;;8.93;8.18;;;;;;;7.46;100.00;98960.53;4169295;28;20244;-48
2023/04/08 02:27:17;;;;;;;8.43;7.82;;;;;;;7.49;100.00;98966.34;4168017;28;20310;-48
2023/04/08 02:29:19;;;;;;;9.10;8.40;;;;;;;7.50;100.00;98967.22;4169123;28;20710;-48
2023/04/08 02:31:21;;;;;;;8.65;7.93;;;;;;;7.47;100.00;98970.34;4169560;28;20236;-47
2023/04/08 02:33:23;;;;;;;10.35;9.45;;;;;;;7.50;100.00;98975.38;4192889;28;20903;-47
2023/04/08 02:35:26;;;;;;;11.60;8.27;;;;;;;7.52;100.00;98970.53;4169084;28;20204;-47
2023/04/08 02:37:29;;;;;;;10.52;9.45;;;;;;;7.48;100.00;98963.88;4152911;28;20239;-47
2023/04/08 02:39:32;;;;;;;9.13;8.23;;;;;;;7.46;100.00;98971.41;4168248;28;20247;-47
2023/04/08 02:41:33;;;;;;;11.30;9.30;;;;;;;7.53;100.00;98978.50;4171242;28;21035;-48
2023/04/08 02:43:35;;;;;;;9.07;8.23;;;;;;;7.48;100.00;98975.59;4202434;28;20728;-48
2023/04/08 02:45:40;;;;;;;10.10;9.27;;;;;;;7.45;100.00;98975.19;4200303;28;20282;-48
2023/04/08 02:47:41;;;;;;;11.75;8.52;;;;;;;7.46;100.00;98969.53;4168675;28;20287;-47
2023/04/08 02:52:51;;;;;;;9.05;8.25;;;;;;;7.42;100.00;98970.19;4166408;28;20203;-47
2023/04/08 02:54:52;;;;;;;8.73;7.95;;;;;;;7.42;100.00;98976.47;4170503;28;20717;-47
2023/04/08 02:56:54;;;;;;;9.75;8.90;;;;;;;7.43;100.00;98971.88;4167497;28;20267;-48
2023/04/08 02:58:56;;;;;;;9.63;8.82;;;;;;;7.42;100.00;98976.47;4199416;28;20268;-49
2023/04/08 03:00:57;;;;;;;9.77;8.80;;;;;;;7.46;100.00;98971.41;4203267;28;20208;-47
2023/04/08 03:02:59;;;;;;;9.55;8.68;;;;;;;7.50;100.00;98978.09;4187096;28;20207;-49
2023/04/08 03:05:03;;;;;;;8.50;7.72;;;;;;;7.50;100.00;98973.47;4193857;28;20641;-48
2023/04/08 03:07:05;;;;;;;10.95;10.07;;;;;;;7.54;100.00;98968.41;4193314;28;20254;-48
2023/04/08 03:09:09;;;;;;;10.48;9.00;;;;;;;7.54;100.00;98979.31;4161643;28;20678;-48
2023/04/08 03:11:11;;;;;;;11.32;10.30;;;;;;;7.53;100.00;98972.19;4169967;28;20294;-48
2023/04/08 03:13:12;;;;;;;12.38;11.18;;;;;;;7.51;100.00;98974.31;4170889;28;20671;-47
2023/04/08 03:15:14;;;;;;;11.95;10.80;;;;;;;7.61;100.00;98975.50;4157247;28;20210;-47
2023/04/08 03:17:16;;;;;;;11.77;9.60;;;;;;;7.55;100.00;98970.13;4169975;28;20240;-47
2023/04/08 03:19:17;;;;;;;12.38;11.38;;;;;;;7.51;100.00;98971.59;4190250;28;20792;-47
2023/04/08 03:21:19;;;;;;;10.70;9.65;;;;;;;7.45;100.00;98972.47;4170520;28;20291;-48
2023/04/08 03:23:21;;;;;;;10.27;9.30;;;;;;;7.50;100.00;98972.66;4167471;28;20212;-47
2023/04/08 03:25:23;;;;;;;12.15;10.13;;;;;;;7.44;100.00;98970.81;4166436;28;20594;-47
2023/04/08 03:27:25;;;;;;;10.68;9.55;;;;;;;7.47;100.00;98973.91;4170266;28;20306;-48
2023/04/08 03:29:29;;;;;;;11.55;10.52;;;;;;;7.46;100.00;98972.25;4168079;28;20578;-48
2023/04/08 03:31:31;;;;;;;12.30;11.20;;;;;;;7.49;100.00;98971.00;4159492;28;20676;-47
2023/04/08 03:33:33;;;;;;;11.43;10.32;;;;;;;7.50;100.00;98975.38;4171918;28;20213;-47
2023/04/08 03:35:36;;;;;;;12.38;11.27;;;;;;;7.50;100.00;98975.38;4175536;28;20283;-47
2023/04/08 03:37:37;;;;;;;11.90;10.73;;;;;;;7.46;100.00;98974.97;4187220;28;20269;-48
2023/04/08 03:39:39;;;;;;;10.82;9.82;;;;;;;7.45;100.00;98972.47;4177481;28;20223;-47
2023/04/08 03:41:41;;;;;;;12.85;11.68;;;;;;;7.40;100.00;98973.13;4177132;28;20651;-48
2023/04/08 03:43:43;;;;;;;12.05;11.05;;;;;;;7.40;100.00;98983.16;4173521;28;20650;-48
2023/04/08 03:45:45;;;;;;;16.45;10.55;;;;;;;7.37;100.00;98984.44;4172558;28;20204;-46
2023/04/08 03:47:46;;;;;;;12.68;11.55;;;;;;;7.37;100.00;98980.91;4159547;28;20234;-47
2023/04/08 03:49:48;;;;;;;11.88;10.88;;;;;;;7.36;100.00;98979.25;4176792;28;20197;-49
2023/04/08 03:51:50;;;;;;;11.75;10.65;;;;;;;7.32;100.00;98980.72;4176947;28;20234;-47
2023/04/08 03:53:52;;;;;;;12.15;11.00;;;;;;;7.34;100.00;98978.59;4167907;28;20215;-48
2023/04/08 03:55:55;;;;;;;13.35;12.05;;;;;;;7.32;100.00;98983.44;4168396;28;20235;-47
2023/04/08 03:57:56;;;;;;;14.63;11.65;;;;;;;7.31;100.00;98985.34;4176660;28;20217;-47
2023/04/08 03:59:58;;;;;;;13.10;11.82;;;;;;;7.34;100.00;98978.59;4171559;28;20258;-48
2023/04/08 04:02:00;;;;;;;12.10;10.93;;;;;;;7.35;100.00;98980.28;4176150;28;20208;-47
2023/04/08 04:04:02;;;;;;;13.63;12.23;;;;;;;7.37;100.00;98983.63;4172007;28;20212;-48
2023/04/08 04:06:04;;;;;;;13.02;11.82;;;;;;;7.35;100.00;98974.84;4175950;28;20594;-48
2023/04/08 04:08:08;;;;;;;15.27;13.93;;;;;;;7.31;100.00;98984.50;4171730;28;20295;-48
2023/04/08 04:10:10;;;;;;;13.77;12.50;;;;;;;7.27;100.00;98984.09;4171899;28;20204;-47
2023/04/08 04:12:12;;;;;;;13.55;12.35;;;;;;;7.25;100.00;98979.91;4169631;28;20267;-48
2023/04/08 04:14:14;;;;;;;13.98;12.60;;;;;;;7.25;100.00;98977.19;4171388;28;20287;-50
2023/04/08 04:16:16;;;;;;;14.25;12.88;;;;;;;7.25;100.00;98985.34;4175884;28;20231;-47
2023/04/08 04:18:18;;;;;;;14.05;12.63;;;;;;;7.23;100.00;98980.13;4177218;28;20573;-47
2023/04/08 04:20:20;;;;;;;15.25;13.80;;;;;;;7.23;100.00;98979.31;4170520;28;20240;-48
2023/04/08 04:22:22;;;;;;;15.57;14.20;;;;;;;7.24;100.00;98984.53;4165587;28;20213;-47
2023/04/08 04:24:24;;;;;;;16.00;13.40;;;;;;;7.25;100.00;98979.91;4200931;28;20388;-48
2023/04/08 04:26:25;;;;;;;15.35;13.45;;;;;;;7.25;100.00;98979.91;4176272;28;20589;-47
2023/04/08 04:28:27;;;;;;;15.60;13.77;;;;;;;7.20;100.00;98988.75;4166286;28;20244;-48
2023/04/08 04:30:29;;;;;;;16.50;14.93;;;;;;;7.24;100.00;98989.13;4189476;28;20257;-47
2023/04/08 04:32:31;;;;;;;15.68;13.75;;;;;;;7.21;100.00;98989.59;4153810;28;20823;-48
2023/04/08 04:34:33;;;;;;;19.17;15.52;;;;;;;7.20;100.00;98988.75;4184259;28;20292;-49
2023/04/08 04:36:35;;;;;;;15.05;13.65;;;;;;;7.20;100.00;98996.91;4175205;28;20256;-48
2023/04/08 04:38:37;;;;;;;15.50;14.10;;;;;;;7.21;100.00;99008.63;4170453;28;20704;-47
2023/04/08 04:40:39;;;;;;;15.90;14.30;;;;;;;7.18;100.00;99001.75;4168914;28;20311;-47
2023/04/08 04:42:41;;;;;;;14.75;13.30;;;;;;;7.16;100.00;98997.56;4163203;28;20209;-48
2023/04/08 04:44:43;;;;;;;17.48;15.63;;;;;;;7.16;100.00;98998.38;4187848;28;20249;-48
2023/04/08 04:46:45;;;;;;;14.35;12.95;;;;;;;7.13;100.00;98997.97;4176205;28;20310;-48
2023/04/08 04:48:47;;;;;;;20.85;15.15;;;;;;;7.12;100.00;99004.47;4204759;28;20234;-48
2023/04/08 04:50:56;;;;;;;15.73;14.35;;;;;;;7.16;100.00;99008.44;4161548;28;20213;-48
2023/04/08 04:52:57;;;;;;;14.65;13.15;;;;;;;7.13;100.00;99008.84;4163534;28;20208;-48
2023/04/08 04:54:59;;;;;;;16.05;13.15;;;;;;;7.17;100.00;99010.09;4168381;28;20212;-48
2023/04/08 04:57:01;;;;;;;17.90;15.65;;;;;;;7.19;100.00;99008.00;4172649;28;20323;-48
2023/04/08 04:59:04;;;;;;;17.88;13.77;;;;;;;7.17;100.00;99004.66;4173617;28;20236;-48
2023/04/08 05:01:06;;;;;;;16.35;14.65;;;;;;;7.15;100.00;99009.50;4172189;28;20266;-48
2023/04/08 05:03:07;;;;;;;14.35;12.95;;;;;;;7.15;100.00;99012.22;4169594;28;20250;-47
2023/04/08 05:05:09;;;;;;;16.60;14.15;;;;;;;7.19;100.00;99021.59;4173892;28;20218;-47
2023/04/08 05:07:11;;;;;;;15.18;13.77;;;;;;;7.09;100.00;99013.09;4169228;28;20290;-48
2023/04/08 05:09:13;;;;;;;21.35;12.52;;;;;;;7.07;100.00;99010.56;4173321;28;20247;-47
2023/04/08 05:11:17;;;;;;;16.38;13.18;;;;;;;7.06;100.00;99013.50;4172564;28;20251;-47
2023/04/08 05:13:19;;;;;;;14.52;13.20;;;;;;;7.07;100.00;99015.16;4172518;28;20659;-47
2023/04/08 05:15:20;;;;;;;15.80;14.40;;;;;;;7.09;100.00;99010.34;4169946;28;20263;-47
2023/04/08 05:17:22;;;;;;;13.13;11.90;;;;;;;7.08;100.00;99017.69;4169205;28;20259;-47
2023/04/08 05:19:24;;;;;;;19.48;13.77;;;;;;;7.09;100.00;99019.34;4170583;28;20231;-49
2023/04/08 05:21:26;;;;;;;14.23;12.93;;;;;;;7.10;100.00;99028.34;4171648;28;20711;-47
2023/04/08 05:23:28;;;;;;;14.32;12.80;;;;;;;7.13;100.00;99019.75;4172958;28;20203;-48
2023/04/08 05:25:29;;;;;;;13.82;12.63;;;;;;;7.15;100.00;99028.56;4185622;28;20589;-48
2023/04/08 05:27:31;;;;;;;15.07;13.15;;;;;;;7.11;100.00;99027.28;4173683;28;20270;-47
2023/04/08 05:29:33;;;;;;;14.07;12.68;;;;;;;7.14;100.00;99027.69;4169839;28;20299;-47
2023/04/08 05:31:35;;;;;;;14.07;12.68;;;;;;;7.09;100.00;99023.97;4156020;28;20236;-47
2023/04/08 05:33:37;;;;;;;13.77;11.73;;;;;;;7.06;100.00;99025.22;4170774;28;20204;-48
2023/04/08 05:35:38;;;;;;;14.13;12.82;;;;;;;7.09;100.00;99032.13;4173782;28;20292;-47
2023/04/08 05:37:40;;;;;;;13.98;12.57;;;;;;;7.07;100.00;99026.03;4173011;28;20327;-47
2023/04/08 05:39:42;;;;;;;12.50;11.32;;;;;;;7.12;100.00;99039.84;4175554;28;20224;-47
2023/04/08 05:41:44;;;;;;;13.68;12.38;;;;;;;7.10;100.00;99037.34;4161022;28;20205;-47
2023/04/08 05:43:46;;;;;;;16.90;14.48;;;;;;;7.12;100.00;99035.25;4179733;28;20719;-48
2023/04/08 05:45:47;;;;;;;13.85;10.90;;;;;;;7.13;100.00;99046.94;4177692;28;20240;-48
2023/04/08 05:47:49;;;;;;;14.25;12.88;;;;;;;7.15;100.00;99039.44;4169049;28;20224;-47
2023/04/08 05:49:51;;;;;;;15.63;13.25;;;;;;;7.16;100.00;99046.53;4172299;28;20247;-47
2023/04/08 05:51:53;;;;;;;15.50;13.95;;;;;;;7.18;100.00;99044.44;4177448;28;20342;-48
2023/04/08 05:53:55;;;;;;;13.40;12.02;;;;;;;7.18;100.00;99039.00;4169862;28;20212;-48
2023/04/08 05:55:57;;;;;;;17.02;12.15;;;;;;;7.22;100.00;99051.13;4168468;28;20654;-47
2023/04/08 05:57:58;;;;;;;11.93;10.70;;;;;;;7.23;100.00;99050.06;4168900;28;20209;-48
2023/04/08 06:00:00;;;;;;;12.35;11.10;;;;;;;7.23;100.00;99052.78;4155767;28;20651;-48
2023/04/08 06:02:02;;;;;;;12.02;10.80;;;;;;;7.27;100.00;99051.28;4155174;28;20625;-48
2023/04/08 06:04:04;;;;;;;12.20;11.10;;;;;;;7.31;100.00;99049.81;4170862;28;20274;-48
2023/04/08 06:06:10;;;;;;;12.52;11.23;;;;;;;7.34;100.00;99060.25;4171424;28;20204;-47
2023/04/08 06:08:12;;;;;;;13.95;12.75;;;;;;;7.35;100.00;99057.34;4170440;28;20215;-48
2023/04/08 06:10:14;;;;;;;12.35;11.27;;;;;;;7.38;100.00;99056.06;4168062;28;20207;-48
2023/04/08 06:12:16;;;;;;;14.18;12.88;;;;;;;7.43;100.00;99056.25;4170192;28;20315;-47
2023/04/08 06:14:19;;;;;;;12.73;11.55;;;;;;;7.44;100.00;99061.50;4171563;28;20238;-48
2023/04/08 06:16:21;;;;;;;14.43;13.02;;;;;;;7.46;100.00;99067.56;4161041;28;20263;-47
2023/04/08 06:18:23;;;;;;;15.00;13.40;;;;;;;7.45;100.00;99074.06;4178628;28;20280;-48
2023/04/08 06:20:25;;;;;;;20.67;14.30;;;;;;;7.44;100.00;99071.53;4178366;28;20648;-49
2023/04/08 06:22:26;;;;;;;18.27;16.48;;;;;;;7.49;100.00;99074.47;4160860;28;20246;-48
2023/04/08 06:24:28;;;;;;;16.80;15.27;;;;;;;7.52;100.00;99069.41;4169347;28;20217;-47
2023/04/08 06:26:30;;;;;;;16.25;14.27;;;;;;;7.58;100.00;99073.16;4155056;28;20267;-47
2023/04/08 06:28:32;;;;;;;16.52;14.10;;;;;;;7.63;100.00;99076.06;4161077;28;20567;-49
2023/04/08 06:30:33;;;;;;;16.60;13.70;;;;;;;7.68;100.00;99074.34;4168938;28;20288;-48
2023/04/08 06:32:35;;;;;;;18.45;14.40;;;;;;;7.70;100.00;99076.84;4170565;28;20208;-48
2023/04/08 06:34:37;;;;;;;18.42;16.25;;;;;;;7.68;100.00;99073.53;4170692;28;20212;-47
2023/04/08 06:36:39;;;;;;;16.67;14.95;;;;;;;7.71;100.00;99076.66;4171188;28;20232;-48
2023/04/08 06:38:40;;;;;;;23.48;18.15;;;;;;;7.71;100.00;99079.38;4177852;28;20696;-47
2023/04/08 06:40:42;;;;;;;17.65;14.45;;;;;;;7.79;100.00;99081.84;4167754;28;20753;-47
2023/04/08 06:42:44;;;;;;;20.23;16.50;;;;;;;7.85;100.00;99082.84;4172481;28;20215;-47
2023/04/08 06:44:46;;;;;;;19.35;15.57;;;;;;;7.90;100.00;99083.84;4159716;28;20221;-48
2023/04/08 06:46:47;;;;;;;18.73;16.90;;;;;;;7.96;100.00;99082.97;4176780;28;20260;-47
2023/04/08 06:48:49;;;;;;;19.73;17.83;;;;;;;8.05;100.00;99084.38;4155300;28;20251;-47
2023/04/08 06:50:51;;;;;;;18.85;17.27;;;;;;;8.11;100.00;99085.38;4153375;28;20555;-47
2023/04/08 06:52:54;;;;;;;17.80;15.98;;;;;;;8.19;100.00;99088.72;4170359;28;20656;-47
2023/04/08 06:54:56;;;;;;;17.85;15.95;;;;;;;8.29;100.00;99088.22;4169127;28;20208;-48
2023/04/08 06:56:57;;;;;;;19.00;17.08;;;;;;;8.27;100.00;99083.00;4186061;28;20227;-47
2023/04/08 06:59:00;;;;;;;26.27;17.00;;;;;;;8.36;100.00;99087.09;4170001;28;20308;-47
2023/04/08 07:01:02;;;;;;;19.02;16.65;;;;;;;8.41;100.00;99091.91;4171379;28;20224;-47
2023/04/08 07:03:03;;;;;;;20.05;17.95;;;;;;;8.36;100.00;99089.00;4178573;28;20215;-49
2023/04/08 07:05:06;;;;;;;18.77;16.98;;;;;;;8.48;100.00;99098.16;4184406;28;20701;-47
2023/04/08 07:07:08;;;;;;;18.77;16.85;;;;;;;8.54;100.00;99092.63;4155537;28;20264;-47
2023/04/08 07:09:11;;;;;;;18.90;17.27;;;;;;;8.58;100.00;99093.00;4156499;28;20299;-47
2023/04/08 07:11:12;;;;;;;18.77;16.85;;;;;;;8.71;100.00;99092.91;4176431;28;20296;-47
2023/04/08 07:13:14;;;;;;;19.92;16.45;;;;;;;8.64;100.00;99100.31;4176858;28;20629;-47
2023/04/08 07:15:16;;;;;;;16.95;15.15;;;;;;;8.62;100.00;99099.72;4177460;28;20243;-47
2023/04/08 07:17:18;;;;;;;18.20;14.88;;;;;;;8.69;100.00;99105.94;4167467;28;20315;-47
2023/04/08 07:19:19;;;;;;;16.95;15.30;;;;;;;8.78;100.00;99110.03;4170950;28;20221;-47
2023/04/08 07:21:21;;;;;;;18.38;14.68;;;;;;;8.70;100.00;99104.88;4177158;28;20255;-47
2023/04/08 07:23:23;;;;;;;17.20;15.70;;;;;;;8.74;100.00;99104.19;4160336;28;21165;-47
2023/04/08 07:25:25;;;;;;;17.13;15.13;;;;;;;8.86;100.00;99107.00;4169829;28;20685;-47
2023/04/08 07:27:26;;;;;;;20.73;16.90;;;;;;;8.96;100.00;99112.81;4202104;28;20939;-47
2023/04/08 07:29:28;;;;;;;16.60;15.15;;;;;;;8.80;100.00;99116.09;4171245;28;20681;-48
2023/04/08 07:31:30;;;;;;;21.05;16.52;;;;;;;8.82;100.00;99116.72;4177558;28;20295;-47
2023/04/08 07:33:32;;;;;;;20.27;15.82;;;;;;;8.93;100.00;99118.69;4184308;28;20726;-48
2023/04/08 07:35:34;;;;;;;17.58;16.08;;;;;;;9.01;100.00;99116.53;4159651;28;20524;-49
2023/04/08 07:37:35;;;;;;;17.80;15.90;;;;;;;9.06;100.00;99113.97;4169122;28;20303;-47
2023/04/08 07:39:37;;;;;;;16.92;15.52;;;;;;;9.14;100.00;99110.13;4172702;28;20298;-47
2023/04/08 07:41:39;;;;;;;17.60;15.02;;;;;;;9.22;100.00;99118.81;4160288;28;20706;-47
2023/04/08 07:43:40;;;;;;;16.95;15.10;;;;;;;9.31;100.00;99119.34;4172392;28;20232;-47
2023/04/08 07:45:42;;;;;;;18.05;16.65;;;;;;;9.44;100.00;99121.94;4176434;28;20709;-47
2023/04/08 07:47:44;;;;;;;16.95;15.43;;;;;;;9.49;100.00;99120.19;4169119;28;20224;-47
2023/04/08 07:49:46;;;;;;;19.05;15.73;;;;;;;9.47;100.00;99127.78;4174965;28;20196;-47
2023/04/08 07:51:48;;;;;;;18.58;15.38;;;;;;;9.58;100.00;99123.44;4169317;28;20240;-47
2023/04/08 07:53:50;;;;;;;18.50;16.75;;;;;;;9.60;100.00;99126.78;4168121;28;20216;-47
2023/04/08 07:55:52;;;;;;;16.65;15.20;;;;;;;9.69;100.00;99117.22;4166536;28;20703;-47
2023/04/08 07:57:54;;;;;;;15.88;13.82;;;;;;;9.78;100.00;99121.28;4177080;28;20222;-47
2023/04/08 07:59:55;;;;;;;15.98;14.48;;;;;;;9.84;100.00;99123.13;4152076;28;20224;-47
2023/04/08 08:01:57;;;;;;;15.40;14.05;;;;;;;9.76;100.00;99128.91;4166853;28;20236;-47
2023/04/08 08:03:59;;;;;;;18.25;16.42;;;;;;;9.90;100.00;99127.66;4169209;28;20204;-47
2023/04/08 08:06:01;;;;;;;17.88;16.00;;;;;;;9.84;100.00;99123.13;4167473;28;20728;-47
2023/04/08 08:08:03;;;;;;;16.83;15.40;;;;;;;9.89;100.00;99132.28;4155156;28;20236;-49
2023/04/08 08:10:05;;;;;;;16.90;15.25;;;;;;;9.77;100.00;99133.31;4201566;28;20211;-47
2023/04/08 08:12:07;;;;;;;15.95;14.55;;;;;;;10.14;100.00;99135.75;4169310;28;20204;-47
2023/04/08 08:14:10;;;;;;;17.30;15.73;;;;;;;10.18;100.00;99144.34;4163910;28;20793;-47
2023/04/08 08:16:12;;;;;;;16.08;14.43;;;;;;;10.58;100.00;99139.94;4173828;28;20232;-47
2023/04/08 08:18:14;;;;;;;18.02;16.52;;;;;;;11.29;100.00;99136.78;4157041;28;20204;-47
2023/04/08 08:20:19;;;;;;;17.48;15.90;;;;;;;11.33;100.00;99142.59;4172247;28;20263;-47
2023/04/08 08:22:20;;;;;;;16.63;15.32;;;;;;;11.42;100.00;99142.00;4163322;28;20296;-47
2023/04/08 08:24:22;;;;;;;16.98;15.38;;;;;;;11.38;100.00;99146.28;4172266;28;20692;-47
2023/04/08 08:26:24;;;;;;;17.58;16.20;;;;;;;11.17;100.00;99141.41;4162409;28;20260;-47
2023/04/08 08:28:26;;;;;;;17.27;15.77;;;;;;;10.88;100.00;99148.91;4171180;28;20239;-47
2023/04/08 08:30:28;;;;;;;17.48;16.05;;;;;;;10.99;100.00;99147.03;4172319;28;20208;-47
2023/04/08 08:32:30;;;;;;;16.50;15.00;;;;;;;11.03;100.00;99140.00;4163203;28;20251;-47
2023/04/08 08:34:32;;;;;;;17.30;15.52;;;;;;;11.50;100.00;99149.03;4178942;28;20211;-47
2023/04/08 08:36:34;;;;;;;16.73;15.32;;;;;;;11.95;100.00;99156.34;4154958;28;21173;-47
2023/04/08 08:38:36;;;;;;;17.27;15.82;;;;;;;12.40;100.00;99153.66;4171819;28;20562;-47
2023/04/08 08:40:37;;;;;;;16.45;15.07;;;;;;;12.46;98.60;99149.94;4178650;28;20701;-47
2023/04/08 08:42:40;;;;;;;14.77;13.57;;;;;;;13.19;96.42;99151.50;4168983;28;20295;-47
2023/04/08 08:44:41;;;;;;;17.38;15.88;;;;;;;13.62;94.85;99157.09;4163073;28;20209;-47
2023/04/08 08:46:44;;;;;;;15.85;14.55;;;;;;;13.54;92.61;99152.03;4154433;28;20291;-48
2023/04/08 08:48:45;;;;;;;15.93;14.35;;;;;;;13.71;92.02;99161.06;4169311;28;20677;-47
2023/04/08 08:50:47;;;;;;;16.58;15.38;;;;;;;13.70;91.31;99153.91;4171664;28;20201;-47
2023/04/08 08:52:50;;;;;;;14.32;13.20;;;;;;;14.03;90.96;99159.28;4170937;28;20212;-47
2023/04/08 08:54:58;;;;;;;24.90;13.82;;;;;;;14.07;88.64;99160.44;4170499;28;20216;-47
2023/04/08 08:57:00;;;;;;;14.38;13.35;;;;;;;13.11;87.70;99153.84;4203169;28;20223;-47
2023/04/08 08:59:02;;;;;;;17.40;16.10;;;;;;;12.60;88.88;99165.84;4174786;28;20287;-47
2023/04/08 09:01:31;;;;;;;15.82;14.35;;;;;;;13.83;90.62;99159.03;4178894;28;20220;-47
2023/04/08 09:03:33;;;;;;;15.27;13.98;;;;;;;14.26;88.95;99159.06;4172625;28;20212;-47
2023/04/08 09:05:50;;;;;;;16.35;14.75;;;;;;;14.58;87.99;99157.19;4178228;28;20208;-48
2023/04/08 09:07:52;;;;;;;15.90;14.60;;;;;;;14.67;83.39;99161.16;4189269;28;20318;-48
2023/04/08 09:09:55;;;;;;;14.82;13.63;;;;;;;15.06;84.12;99154.34;4175240;28;20302;-47
2023/04/08 09:12:03;;;;;;;13.70;12.60;;;;;;;15.51;82.81;99157.44;4172772;28;20228;-47
2023/04/08 09:14:20;;;;;;;15.60;14.35;;;;;;;15.26;82.48;99153.66;4169029;28;20204;-47
2023/04/08 09:16:22;;;;;;;15.45;14.25;;;;;;;15.35;81.97;99158.47;4173061;28;20331;-47
2023/04/08 09:18:25;;;;;;;14.07;12.63;;;;;;;15.67;81.92;99161.13;4168307;28;20209;-47
2023/04/08 09:20:26;;;;;;;15.88;14.48;;;;;;;15.91;81.33;99149.41;4178817;28;20697;-47
2023/04/08 09:22:28;;;;;;;15.65;14.45;;;;;;;15.78;78.25;99162.88;4171071;28;20367;-47
2023/04/08 09:24:30;;;;;;;15.38;13.98;;;;;;;16.30;78.94;99156.19;4157843;28;20298;-47
2023/04/08 09:26:32;;;;;;;15.10;13.93;;;;;;;15.66;72.95;99156.72;4170520;28;20645;-47
2023/04/08 09:28:34;;;;;;;14.93;13.82;;;;;;;16.27;77.12;99150.38;4174471;28;20235;-48
2023/04/08 09:30:36;;;;;;;14.70;13.60;;;;;;;16.48;75.70;99152.97;4174671;28;20339;-48
2023/04/08 09:32:51;;;;;;;14.80;13.60;;;;;;;16.29;74.34;99151.78;4167849;28;20219;-47